sensor_id;sensor_type;location;lat;lon;timestamp;pressure;altitude;pressure_sealevel;temperature;humidity
19797;BME280;10058;57.654;12.044;2024-01-15T00:00:28;97456.22;;;6.06;100.00
19797;BME280;10058;57.654;12.044;2024-01-15T00:02:53;97458.75;;;6.21;100.00
19797;BME280;10058;57.654;12.044;2024-01-15T00:05:18;97446.56;;;6.14;100.00
19797;BME280;10058;57.654;12.044;2024-01-15T00:07:43;97443.22;;;5.97;100.00
19797;BME280;10058;57.654;12.044;2024-01-15T00:10:09;97444.84;;;6.10;100.00
19797;BME280;10058;57.654;12.044;2024-01-15T00:12:34;97443.09;;;6.12;100.00
19797;BME280;10058;57.654;12.044;2024-01-15T00:14:59;97441.47;;;5.96;100.00
19797;BME280;10058;57.654;12.044;2024-01-15T00:17:25;97437.97;;;5.97;100.00
19797;BME280;10058;57.654;12.044;2024-01-15T00:19:50;97432.72;;;6.00;100.00
19797;BME280;10058;57.654;12.044;2024-01-15T00:22:15;97437.97;;;5.99;100.00
19797;BME280;10058;57.654;12.044;2024-01-15T00:24:40;97439.72;;;5.98;100.00
19797;BME280;10058;57.654;12.044;2024-01-15T00:27:05;97437.09;;;5.95;100.00
19797;BME280;10058;57.654;12.044;2024-01-15T00:29:31;97426.69;;;5.86;100.00
19797;BME280;10058;57.654;12.044;2024-01-15T00:31:56;97424.03;;;5.89;100.00
19797;BME280;10058;57.654;12.044;2024-01-15T00:34:21;97418.78;;;5.89;100.00
19797;BME280;10058;57.654;12.044;2024-01-15T00:36:46;97421.44;;;5.87;100.00
19797;BME280;10058;57.654;12.044;2024-01-15T00:39:11;97418.94;;;5.68;100.00
19797;BME280;10058;57.654;12.044;2024-01-15T00:41:36;97410.25;;;5.56;100.00
19797;BME280;10058;57.654;12.044;2024-01-15T00:44:02;97405.09;;;5.47;100.00
19797;BME280;10058;57.654;12.044;2024-01-15T00:46:28;97397.38;;;5.26;100.00
19797;BME280;10058;57.654;12.044;2024-01-15T00:48:53;97392.94;;;5.37;100.00
19797;BME280;10058;57.654;12.044;2024-01-15T00:51:18;97389.50;;;5.32;100.00
19797;BME280;10058;57.654;12.044;2024-01-15T00:53:43;97389.50;;;5.32;100.00
19797;BME280;10058;57.654;12.044;2024-01-15T00:56:08;97387.84;;;5.19;100.00
19797;BME280;10058;57.654;12.044;2024-01-15T00:58:33;97389.53;;;5.20;100.00
19797;BME280;10058;57.654;12.044;2024-01-15T01:00:59;97388.81;;;4.89;100.00
19797;BME280;10058;57.654;12.044;2024-01-15T01:03:24;97391.50;;;4.78;100.00
19797;BME280;10058;57.654;12.044;2024-01-15T01:05:49;97398.53;;;4.53;100.00
19797;BME280;10058;57.654;12.044;2024-01-15T01:08:17;97395.91;;;4.63;100.00
19797;BME280;10058;57.654;12.044;2024-01-15T01:10:42;97393.25;;;4.70;100.00
19797;BME280;10058;57.654;12.044;2024-01-15T01:13:08;97390.63;;;4.75;100.00
19797;BME280;10058;57.654;12.044;2024-01-15T01:15:33;97396.78;;;4.63;100.00
19797;BME280;10058;57.654;12.044;2024-01-15T01:17:58;97401.19;;;4.41;100.00
19797;BME280;10058;57.654;12.044;2024-01-15T01:20:23;97395.91;;;4.61;100.00
19797;BME280;10058;57.654;12.044;2024-01-15T01:22:48;97391.50;;;4.75;100.00
19797;BME280;10058;57.654;12.044;2024-01-15T01:25:14;97391.56;;;4.60;100.00
19797;BME280;10058;57.654;12.044;2024-01-15T01:27:40;97396.75;;;4.68;100.00
19797;BME280;10058;57.654;12.044;2024-01-15T01:30:05;97396.72;;;4.75;100.00
19797;BME280;10058;57.654;12.044;2024-01-15T01:32:30;97394.09;;;4.81;100.00
19797;BME280;10058;57.654;12.044;2024-01-15T01:34:56;97392.31;;;4.93;100.00
19797;BME280;10058;57.654;12.044;2024-01-15T01:37:21;97385.22;;;5.16;100.00
19797;BME280;10058;57.654;12.044;2024-01-15T01:39:46;97394.03;;;5.00;100.00
19797;BME280;10058;57.654;12.044;2024-01-15T01:42:11;97397.50;;;5.02;100.00
19797;BME280;10058;57.654;12.044;2024-01-15T01:44:37;97402.81;;;4.83;100.00
19797;BME280;10058;57.654;12.044;2024-01-15T01:47:02;97394.09;;;4.84;100.00
19797;BME280;10058;57.654;12.044;2024-01-15T01:49:29;97391.50;;;4.78;100.00
19797;BME280;10058;57.654;12.044;2024-01-15T01:51:56;97396.69;;;4.87;100.00
19797;BME280;10058;57.654;12.044;2024-01-15T01:54:22;97387.88;;;5.07;100.00
19797;BME280;10058;57.654;12.044;2024-01-15T01:56:47;97388.75;;;5.03;100.00
19797;BME280;10058;57.654;12.044;2024-01-15T01:59:13;97389.59;;;5.11;100.00
19797;BME280;10058;57.654;12.044;2024-01-15T02:01:39;97393.25;;;4.72;100.00
19797;BME280;10058;57.654;12.044;2024-01-15T02:04:04;97395.78;;;4.93;100.00
19797;BME280;10058;57.654;12.044;2024-01-15T02:06:29;97400.22;;;4.71;100.00
19797;BME280;10058;57.654;12.044;2024-01-15T02:08:55;97388.00;;;4.79;100.00
19797;BME280;10058;57.654;12.044;2024-01-15T02:11:20;97394.97;;;4.83;100.00
19797;BME280;10058;57.654;12.044;2024-01-15T02:13:46;97402.06;;;4.42;100.00
19797;BME280;10058;57.654;12.044;2024-01-15T02:16:11;97403.84;;;4.03;100.00
19797;BME280;10058;57.654;12.044;2024-01-15T02:18:40;97421.13;;;3.02;100.00
19797;BME280;10058;57.654;12.044;2024-01-15T02:21:05;97431.53;;;2.92;100.00
19797;BME280;10058;57.654;12.044;2024-01-15T02:23:30;97428.03;;;2.87;100.00
19797;BME280;10058;57.654;12.044;2024-01-15T02:25:56;97438.34;;;2.65;100.00
19797;BME280;10058;57.654;12.044;2024-01-15T02:28:21;97442.69;;;2.66;100.00
19797;BME280;10058;57.654;12.044;2024-01-15T02:30:46;97446.81;;;2.25;100.00
19797;BME280;10058;57.654;12.044;2024-01-15T02:33:11;97444.81;;;1.90;100.00
19797;BME280;10058;57.654;12.044;2024-01-15T02:35:37;97457.84;;;1.95;100.00
19797;BME280;10058;57.654;12.044;2024-01-15T02:38:03;97461.63;;;2.35;100.00
19797;BME280;10058;57.654;12.044;2024-01-15T02:40:28;97460.59;;;2.12;100.00
19797;BME280;10058;57.654;12.044;2024-01-15T02:42:53;97470.84;;;1.93;100.00
19797;BME280;10058;57.654;12.044;2024-01-15T02:45:19;97460.72;;;2.30;100.00
19797;BME280;10058;57.654;12.044;2024-01-15T02:47:44;97459.03;;;2.35;100.00
19797;BME280;10058;57.654;12.044;2024-01-15T02:50:10;97476.06;;;1.90;100.00
19797;BME280;10058;57.654;12.044;2024-01-15T02:52:35;97475.22;;;1.97;100.00
19797;BME280;10058;57.654;12.044;2024-01-15T02:55:00;97477.72;;;1.82;100.00
19797;BME280;10058;57.654;12.044;2024-01-15T02:57:25;97499.81;;;1.37;100.00
19797;BME280;10058;57.654;12.044;2024-01-15T02:59:50;97493.97;;;1.60;100.00
19797;BME280;10058;57.654;12.044;2024-01-15T03:02:16;97496.66;;;1.66;100.00
19797;BME280;10058;57.654;12.044;2024-01-15T03:04:44;97501.59;;;1.43;100.00
19797;BME280;10058;57.654;12.044;2024-01-15T03:07:09;97513.69;;;1.36;100.00
19797;BME280;10058;57.654;12.044;2024-01-15T03:09:34;97637.59;;;1.99;100.00
19797;BME280;10058;57.654;12.044;2024-01-15T03:12:00;97721.16;;;2.19;100.00
19797;BME280;10058;57.654;12.044;2024-01-15T03:14:25;97703.28;;;1.77;100.00
19797;BME280;10058;57.654;12.044;2024-01-15T03:16:51;97701.31;;;1.61;100.00
19797;BME280;10058;57.654;12.044;2024-01-15T03:19:16;97672.38;;;2.04;100.00
19797;BME280;10058;57.654;12.044;2024-01-15T03:21:41;97621.63;;;1.69;100.00
19797;BME280;10058;57.654;12.044;2024-01-15T03:24:06;97589.75;;;1.90;100.00
19797;BME280;10058;57.654;12.044;2024-01-15T03:26:31;97585.25;;;1.78;100.00
19797;BME280;10058;57.654;12.044;2024-01-15T03:28:57;97610.28;;;1.65;100.00
19797;BME280;10058;57.654;12.044;2024-01-15T03:31:22;97598.91;;;1.59;100.00
19797;BME280;10058;57.654;12.044;2024-01-15T03:33:47;97605.56;;;1.32;100.00
19797;BME280;10058;57.654;12.044;2024-01-15T03:36:12;97596.94;;;1.39;100.00
19797;BME280;10058;57.654;12.044;2024-01-15T03:38:41;97589.16;;;1.38;100.00
19797;BME280;10058;57.654;12.044;2024-01-15T03:41:07;97591.09;;;1.54;100.00
19797;BME280;10058;57.654;12.044;2024-01-15T03:43:32;97605.63;;;1.38;100.00
19797;BME280;10058;57.654;12.044;2024-01-15T03:45:57;97602.28;;;1.49;100.00
19797;BME280;10058;57.654;12.044;2024-01-15T03:48:23;97613.41;;;0.77;100.00
19797;BME280;10058;57.654;12.044;2024-01-15T03:50:48;97596.00;;;1.31;100.00
19797;BME280;10058;57.654;12.044;2024-01-15T03:53:13;97617.63;;;1.27;100.00
19797;BME280;10058;57.654;12.044;2024-01-15T03:55:38;97619.00;;;1.01;100.00
19797;BME280;10058;57.654;12.044;2024-01-15T03:58:03;97613.16;;;1.17;100.00
19797;BME280;10058;57.654;12.044;2024-01-15T04:00:28;97630.06;;;0.89;100.00
19797;BME280;10058;57.654;12.044;2024-01-15T04:02:54;97767.47;;;0.66;100.00
19797;BME280;10058;57.654;12.044;2024-01-15T04:05:19;97761.94;;;0.48;100.00
19797;BME280;10058;57.654;12.044;2024-01-15T04:07:44;97631.06;;;0.43;100.00
19797;BME280;10058;57.654;12.044;2024-01-15T04:10:09;97670.94;;;0.45;100.00
19797;BME280;10058;57.654;12.044;2024-01-15T04:12:35;97659.41;;;0.81;100.00
19797;BME280;10058;57.654;12.044;2024-01-15T04:15:00;97660.06;;;0.67;100.00
19797;BME280;10058;57.654;12.044;2024-01-15T04:17:26;97688.94;;;0.36;100.00
19797;BME280;10058;57.654;12.044;2024-01-15T04:19:52;97672.03;;;0.10;100.00
19797;BME280;10058;57.654;12.044;2024-01-15T04:22:17;97677.66;;;0.84;100.00
19797;BME280;10058;57.654;12.044;2024-01-15T04:24:42;97688.50;;;0.60;100.00
19797;BME280;10058;57.654;12.044;2024-01-15T04:27:07;97684.94;;;0.55;100.00
19797;BME280;10058;57.654;12.044;2024-01-15T04:29:33;97684.13;;;0.57;100.00
19797;BME280;10058;57.654;12.044;2024-01-15T04:31:58;97696.66;;;0.30;100.00
19797;BME280;10058;57.654;12.044;2024-01-15T04:34:23;97691.06;;;0.58;100.00
19797;BME280;10058;57.654;12.044;2024-01-15T04:36:48;97693.63;;;1.08;100.00
19797;BME280;10058;57.654;12.044;2024-01-15T04:39:14;97695.69;;;0.75;100.00
19797;BME280;10058;57.654;12.044;2024-01-15T04:41:39;97706.50;;;0.48;100.00
19797;BME280;10058;57.654;12.044;2024-01-15T04:44:04;97699.91;;;0.66;100.00
19797;BME280;10058;57.654;12.044;2024-01-15T04:46:29;97712.69;;;0.56;100.00
19797;BME280;10058;57.654;12.044;2024-01-15T04:48:54;97718.28;;;0.29;100.00
19797;BME280;10058;57.654;12.044;2024-01-15T04:51:20;97717.38;;;0.77;100.00
19797;BME280;10058;57.654;12.044;2024-01-15T04:53:45;97721.72;;;0.78;100.00
19797;BME280;10058;57.654;12.044;2024-01-15T04:56:10;97725.31;;;0.36;100.00
19797;BME280;10058;57.654;12.044;2024-01-15T04:58:35;97682.91;;;0.37;100.00
19797;BME280;10058;57.654;12.044;2024-01-15T05:01:00;97748.03;;;0.46;100.00
19797;BME280;10058;57.654;12.044;2024-01-15T05:03:26;97748.44;;;0.67;100.00
19797;BME280;10058;57.654;12.044;2024-01-15T05:05:51;97765.41;;;0.49;100.00
19797;BME280;10058;57.654;12.044;2024-01-15T05:08:16;97758.13;;;0.31;100.00
19797;BME280;10058;57.654;12.044;2024-01-15T05:10:41;97774.00;;;0.46;100.00
19797;BME280;10058;57.654;12.044;2024-01-15T05:13:06;97766.69;;;0.27;100.00
19797;BME280;10058;57.654;12.044;2024-01-15T05:15:31;97774.19;;;0.12;100.00
19797;BME280;10058;57.654;12.044;2024-01-15T05:17:57;97787.47;;;0.27;100.00
19797;BME280;10058;57.654;12.044;2024-01-15T05:20:22;97778.63;;;0.62;100.00
19797;BME280;10058;57.654;12.044;2024-01-15T05:22:47;97793.03;;;0.45;100.00
19797;BME280;10058;57.654;12.044;2024-01-15T05:25:12;97770.22;;;0.29;100.00
19797;BME280;10058;57.654;12.044;2024-01-15T05:27:37;97786.09;;;0.44;100.00
19797;BME280;10058;57.654;12.044;2024-01-15T05:30:03;97793.44;;;0.66;100.00
19797;BME280;10058;57.654;12.044;2024-01-15T05:32:29;97796.28;;;0.35;100.00
19797;BME280;10058;57.654;12.044;2024-01-15T05:34:54;97777.16;;;0.30;100.00
19797;BME280;10058;57.654;12.044;2024-01-15T05:37:19;97846.63;;;0.40;100.00
19797;BME280;10058;57.654;12.044;2024-01-15T05:39:44;97825.00;;;0.00;100.00
19797;BME280;10058;57.654;12.044;2024-01-15T05:42:10;97843.53;;;0.16;100.00
19797;BME280;10058;57.654;12.044;2024-01-15T05:44:35;97860.06;;;0.21;100.00
19797;BME280;10058;57.654;12.044;2024-01-15T05:47:00;97847.03;;;0.19;100.00
19797;BME280;10058;57.654;12.044;2024-01-15T05:49:25;97855.91;;;0.73;100.00
19797;BME280;10058;57.654;12.044;2024-01-15T05:51:50;97855.91;;;0.29;100.00
19797;BME280;10058;57.654;12.044;2024-01-15T05:54:17;97868.69;;;0.20;100.00
19797;BME280;10058;57.654;12.044;2024-01-15T05:56:43;97900.25;;;0.38;100.00
19797;BME280;10058;57.654;12.044;2024-01-15T05:59:08;97888.88;;;0.31;100.00
19797;BME280;10058;57.654;12.044;2024-01-15T06:01:33;97888.78;;;-0.11;100.00
19797;BME280;10058;57.654;12.044;2024-01-15T06:03:58;97896.16;;;0.48;100.00
19797;BME280;10058;57.654;12.044;2024-01-15T06:06:23;97909.59;;;0.28;100.00
19797;BME280;10058;57.654;12.044;2024-01-15T06:08:49;97894.25;;;0.41;100.00
19797;BME280;10058;57.654;12.044;2024-01-15T06:11:14;97918.75;;;0.52;100.00
19797;BME280;10058;57.654;12.044;2024-01-15T06:13:39;97933.09;;;0.36;100.00
19797;BME280;10058;57.654;12.044;2024-01-15T06:16:11;97930.03;;;0.54;100.00
19797;BME280;10058;57.654;12.044;2024-01-15T06:18:37;97931.63;;;0.47;100.00
19797;BME280;10058;57.654;12.044;2024-01-15T06:21:02;97956.75;;;0.47;100.00
19797;BME280;10058;57.654;12.044;2024-01-15T06:23:27;97955.09;;;0.13;100.00
19797;BME280;10058;57.654;12.044;2024-01-15T06:25:52;97951.25;;;-0.05;100.00
19797;BME280;10058;57.654;12.044;2024-01-15T06:28:18;97968.41;;;-0.10;100.00
19797;BME280;10058;57.654;12.044;2024-01-15T06:30:43;97980.59;;;-0.07;100.00
19797;BME280;10058;57.654;12.044;2024-01-15T06:33:08;98001.84;;;-0.22;100.00
19797;BME280;10058;57.654;12.044;2024-01-15T06:35:33;98001.81;;;-0.23;100.00
19797;BME280;10058;57.654;12.044;2024-01-15T06:37:59;98017.97;;;-0.35;100.00
19797;BME280;10058;57.654;12.044;2024-01-15T06:40:24;98016.50;;;-0.24;100.00
19797;BME280;10058;57.654;12.044;2024-01-15T06:42:49;98023.69;;;-0.14;100.00
19797;BME280;10058;57.654;12.044;2024-01-15T06:45:15;98028.34;;;0.34;100.00
19797;BME280;10058;57.654;12.044;2024-01-15T06:47:40;98051.16;;;0.11;100.00
19797;BME280;10058;57.654;12.044;2024-01-15T06:50:07;98057.94;;;-0.27;100.00
19797;BME280;10058;57.654;12.044;2024-01-15T06:52:32;98049.22;;;0.04;100.00
19797;BME280;10058;57.654;12.044;2024-01-15T06:54:57;98067.31;;;-0.01;100.00
19797;BME280;10058;57.654;12.044;2024-01-15T06:57:22;98079.22;;;-0.07;100.00
19797;BME280;10058;57.654;12.044;2024-01-15T06:59:48;98081.97;;;-0.03;100.00
19797;BME280;10058;57.654;12.044;2024-01-15T07:02:13;98105.72;;;-0.50;100.00
19797;BME280;10058;57.654;12.044;2024-01-15T07:04:38;98105.81;;;-0.47;100.00
19797;BME280;10058;57.654;12.044;2024-01-15T07:07:03;98102.41;;;0.20;100.00
19797;BME280;10058;57.654;12.044;2024-01-15T07:09:28;98123.97;;;-0.16;100.00
19797;BME280;10058;57.654;12.044;2024-01-15T07:11:54;98127.69;;;-0.08;100.00
19797;BME280;10058;57.654;12.044;2024-01-15T07:14:19;98134.81;;;-0.01;100.00
19797;BME280;10058;57.654;12.044;2024-01-15T07:16:44;98141.25;;;-0.18;100.00
19797;BME280;10058;57.654;12.044;2024-01-15T07:19:09;98137.78;;;-0.17;100.00
19797;BME280;10058;57.654;12.044;2024-01-15T07:21:34;98142.31;;;-0.71;100.00
19797;BME280;10058;57.654;12.044;2024-01-15T07:24:00;98166.00;;;-0.29;100.00
19797;BME280;10058;57.654;12.044;2024-01-15T07:26:25;98163.75;;;-0.17;100.00
19797;BME280;10058;57.654;12.044;2024-01-15T07:28:51;98169.44;;;0.02;100.00
19797;BME280;10058;57.654;12.044;2024-01-15T07:31:16;98178.25;;;-0.25;100.00
19797;BME280;10058;57.654;12.044;2024-01-15T07:33:42;98179.84;;;0.02;100.00
19797;BME280;10058;57.654;12.044;2024-01-15T07:36:07;98198.78;;;-0.32;100.00
19797;BME280;10058;57.654;12.044;2024-01-15T07:38:32;98208.34;;;-0.02;100.00
19797;BME280;10058;57.654;12.044;2024-01-15T07:40:57;98195.97;;;-0.40;100.00
19797;BME280;10058;57.654;12.044;2024-01-15T07:43:23;98219.09;;;-0.76;100.00
19797;BME280;10058;57.654;12.044;2024-01-15T07:45:48;98211.78;;;-0.31;100.00
19797;BME280;10058;57.654;12.044;2024-01-15T07:48:13;98224.56;;;-0.39;100.00
19797;BME280;10058;57.654;12.044;2024-01-15T07:50:39;98235.28;;;-0.26;100.00
19797;BME280;10058;57.654;12.044;2024-01-15T07:53:04;98228.09;;;-0.37;100.00
19797;BME280;10058;57.654;12.044;2024-01-15T07:55:30;98246.38;;;-0.32;100.00
19797;BME280;10058;57.654;12.044;2024-01-15T07:57:55;98255.28;;;-0.24;100.00
19797;BME280;10058;57.654;12.044;2024-01-15T08:00:23;98252.38;;;-0.33;100.00
19797;BME280;10058;57.654;12.044;2024-01-15T08:02:49;98274.81;;;-0.63;100.00
19797;BME280;10058;57.654;12.044;2024-01-15T08:05:14;98262.13;;;-0.26;100.00
19797;BME280;10058;57.654;12.044;2024-01-15T08:07:39;98264.03;;;-0.20;100.00
19797;BME280;10058;57.654;12.044;2024-01-15T08:10:05;98284.56;;;-0.56;100.00
19797;BME280;10058;57.654;12.044;2024-01-15T08:12:30;98287.72;;;-0.38;100.00
19797;BME280;10058;57.654;12.044;2024-01-15T08:14:55;98282.41;;;-0.69;100.00
19797;BME280;10058;57.654;12.044;2024-01-15T08:17:20;98297.63;;;-0.53;100.00
19797;BME280;10058;57.654;12.044;2024-01-15T08:19:46;98294.09;;;-0.55;100.00
19797;BME280;10058;57.654;12.044;2024-01-15T08:22:11;98297.41;;;-0.59;100.00
19797;BME280;10058;57.654;12.044;2024-01-15T08:24:36;98300.13;;;-0.56;100.00
19797;BME280;10058;57.654;12.044;2024-01-15T08:27:01;98304.38;;;-0.58;100.00
19797;BME280;10058;57.654;12.044;2024-01-15T08:29:27;98304.47;;;-0.55;100.00
19797;BME280;10058;57.654;12.044;2024-01-15T08:31:52;98301.22;;;-0.48;100.00
19797;BME280;10058;57.654;12.044;2024-01-15T08:34:17;98308.75;;;-0.83;100.00
19797;BME280;10058;57.654;12.044;2024-01-15T08:36:43;98320.59;;;-0.91;100.00
19797;BME280;10058;57.654;12.044;2024-01-15T08:39:08;98328.22;;;-0.68;100.00
19797;BME280;10058;57.654;12.044;2024-01-15T08:41:34;98329.50;;;-0.83;100.00
19797;BME280;10058;57.654;12.044;2024-01-15T08:43:59;98339.66;;;-0.90;100.00
19797;BME280;10058;57.654;12.044;2024-01-15T08:46:24;98327.56;;;-0.90;100.00
19797;BME280;10058;57.654;12.044;2024-01-15T08:48:50;98346.81;;;-0.82;100.00
19797;BME280;10058;57.654;12.044;2024-01-15T08:51:15;98342.53;;;-0.81;100.00
19797;BME280;10058;57.654;12.044;2024-01-15T08:53:40;98338.81;;;-0.89;100.00
19797;BME280;10058;57.654;12.044;2024-01-15T08:56:05;98348.41;;;-0.87;100.00
19797;BME280;10058;57.654;12.044;2024-01-15T08:58:31;98341.91;;;-0.99;100.00
19797;BME280;10058;57.654;12.044;2024-01-15T09:00:56;98367.34;;;-0.62;100.00
19797;BME280;10058;57.654;12.044;2024-01-15T09:03:21;98360.72;;;-0.80;100.00
19797;BME280;10058;57.654;12.044;2024-01-15T09:05:46;98351.56;;;-0.68;100.00
19797;BME280;10058;57.654;12.044;2024-01-15T09:08:13;98358.47;;;-0.69;100.00
19797;BME280;10058;57.654;12.044;2024-01-15T09:10:38;98359.06;;;-0.78;100.00
19797;BME280;10058;57.654;12.044;2024-01-15T09:13:04;98371.09;;;-0.80;100.00
19797;BME280;10058;57.654;12.044;2024-01-15T09:15:29;98379.75;;;-0.27;100.00
19797;BME280;10058;57.654;12.044;2024-01-15T09:17:54;98381.47;;;0.01;100.00
19797;BME280;10058;57.654;12.044;2024-01-15T09:20:20;98378.28;;;-0.19;100.00
19797;BME280;10058;57.654;12.044;2024-01-15T09:22:45;98403.69;;;0.20;100.00
19797;BME280;10058;57.654;12.044;2024-01-15T09:25:10;98391.47;;;0.16;100.00
19797;BME280;10058;57.654;12.044;2024-01-15T09:27:36;98398.75;;;-0.28;100.00
19797;BME280;10058;57.654;12.044;2024-01-15T09:30:02;98402.34;;;0.04;100.00
19797;BME280;10058;57.654;12.044;2024-01-15T09:32:27;98406.13;;;-0.13;100.00
19797;BME280;10058;57.654;12.044;2024-01-15T09:34:52;98408.72;;;0.14;100.00
19797;BME280;10058;57.654;12.044;2024-01-15T09:37:17;98429.00;;;0.55;100.00
19797;BME280;10058;57.654;12.044;2024-01-15T09:39:43;98420.75;;;0.12;100.00
19797;BME280;10058;57.654;12.044;2024-01-15T09:42:08;98429.50;;;0.14;100.00
19797;BME280;10058;57.654;12.044;2024-01-15T09:44:33;98435.06;;;0.26;100.00
19797;BME280;10058;57.654;12.044;2024-01-15T09:46:59;98435.47;;;-0.16;100.00
19797;BME280;10058;57.654;12.044;2024-01-15T09:49:24;98431.31;;;0.18;100.00
19797;BME280;10058;57.654;12.044;2024-01-15T09:51:49;98434.59;;;0.11;100.00
19797;BME280;10058;57.654;12.044;2024-01-15T09:54:17;98438.41;;;-0.05;100.00
19797;BME280;10058;57.654;12.044;2024-01-15T09:56:46;98452.63;;;-0.21;100.00
19797;BME280;10058;57.654;12.044;2024-01-15T09:59:13;98431.75;;;-0.24;100.00
19797;BME280;10058;57.654;12.044;2024-01-15T10:01:39;98434.97;;;-0.31;100.00
19797;BME280;10058;57.654;12.044;2024-01-15T10:04:05;98439.31;;;-0.05;100.00
19797;BME280;10058;57.654;12.044;2024-01-15T10:06:30;98442.00;;;0.27;100.00
19797;BME280;10058;57.654;12.044;2024-01-15T10:08:56;98442.72;;;-0.06;100.00
19797;BME280;10058;57.654;12.044;2024-01-15T10:11:23;98454.91;;;-0.30;100.00
19797;BME280;10058;57.654;12.044;2024-01-15T10:13:48;98461.84;;;0.53;100.00
19797;BME280;10058;57.654;12.044;2024-01-15T10:16:18;98456.81;;;0.29;100.00
19797;BME280;10058;57.654;12.044;2024-01-15T10:18:43;98469.94;;;0.07;100.00
19797;BME280;10058;57.654;12.044;2024-01-15T10:21:08;98477.78;;;0.09;100.00
19797;BME280;10058;57.654;12.044;2024-01-15T10:23:33;98470.47;;;-0.30;100.00
19797;BME280;10058;57.654;12.044;2024-01-15T10:25:59;98469.47;;;-0.35;100.00
19797;BME280;10058;57.654;12.044;2024-01-15T10:28:26;98472.13;;;-0.07;100.00
19797;BME280;10058;57.654;12.044;2024-01-15T10:30:55;98477.31;;;-0.07;100.00
19797;BME280;10058;57.654;12.044;2024-01-15T10:33:24;98480.66;;;0.16;100.00
19797;BME280;10058;57.654;12.044;2024-01-15T10:35:55;98485.97;;;0.21;100.00
19797;BME280;10058;57.654;12.044;2024-01-15T10:38:21;98474.38;;;0.10;100.00
19797;BME280;10058;57.654;12.044;2024-01-15T10:40:47;98499.13;;;-0.27;100.00
19797;BME280;10058;57.654;12.044;2024-01-15T10:43:12;98489.13;;;0.39;100.00
19797;BME280;10058;57.654;12.044;2024-01-15T10:45:38;98501.41;;;-0.11;100.00
19797;BME280;10058;57.654;12.044;2024-01-15T10:48:03;98511.88;;;-0.33;100.00
19797;BME280;10058;57.654;12.044;2024-01-15T10:50:29;98517.91;;;-0.34;100.00
19797;BME280;10058;57.654;12.044;2024-01-15T10:52:54;98524.91;;;-0.57;100.00
19797;BME280;10058;57.654;12.044;2024-01-15T10:55:20;98525.56;;;-0.62;100.00
19797;BME280;10058;57.654;12.044;2024-01-15T10:57:46;98540.59;;;-0.78;100.00
19797;BME280;10058;57.654;12.044;2024-01-15T11:00:13;98535.72;;;-0.45;100.00
19797;BME280;10058;57.654;12.044;2024-01-15T11:02:39;98542.91;;;-0.61;100.00
19797;BME280;10058;57.654;12.044;2024-01-15T11:05:05;98541.03;;;-0.65;100.00
19797;BME280;10058;57.654;12.044;2024-01-15T11:07:31;98541.34;;;-0.80;100.00
19797;BME280;10058;57.654;12.044;2024-01-15T11:09:56;98545.53;;;-0.36;100.00
19797;BME280;10058;57.654;12.044;2024-01-15T11:12:23;98550.94;;;-0.05;100.00
19797;BME280;10058;57.654;12.044;2024-01-15T11:14:49;98559.53;;;-0.31;100.00
19797;BME280;10058;57.654;12.044;2024-01-15T11:17:15;98559.75;;;-0.25;100.00
19797;BME280;10058;57.654;12.044;2024-01-15T11:22:09;98571.31;;;-0.15;100.00
19797;BME280;10058;57.654;12.044;2024-01-15T11:24:35;98573.34;;;-0.32;100.00
19797;BME280;10058;57.654;12.044;2024-01-15T11:27:01;98573.56;;;-0.26;100.00
19797;BME280;10058;57.654;12.044;2024-01-15T11:34:20;98589.69;;;-0.82;100.00
19797;BME280;10058;57.654;12.044;2024-01-15T11:41:52;98589.28;;;0.04;100.00
19797;BME280;10058;57.654;12.044;2024-01-15T11:44:17;98602.19;;;-0.24;100.00
19797;BME280;10058;57.654;12.044;2024-01-15T11:46:43;98597.75;;;-0.51;100.00
19797;BME280;10058;57.654;12.044;2024-01-15T11:49:14;98603.09;;;0.03;100.00
19797;BME280;10058;57.654;12.044;2024-01-15T11:51:50;98596.88;;;-0.51;100.00
19797;BME280;10058;57.654;12.044;2024-01-15T11:54:15;98608.13;;;-0.27;100.00
19797;BME280;10058;57.654;12.044;2024-01-15T11:56:41;98613.66;;;-0.65;100.00
19797;BME280;10058;57.654;12.044;2024-01-15T11:59:06;98621.09;;;-0.75;100.00
19797;BME280;10058;57.654;12.044;2024-01-15T12:01:32;98625.78;;;-0.88;100.00
19797;BME280;10058;57.654;12.044;2024-01-15T12:03:58;98629.00;;;-0.72;100.00
19797;BME280;10058;57.654;12.044;2024-01-15T12:06:23;98614.03;;;-1.01;100.00
19797;BME280;10058;57.654;12.044;2024-01-15T12:08:49;98612.31;;;-0.78;100.00
19797;BME280;10058;57.654;12.044;2024-01-15T12:11:14;98608.03;;;-0.78;100.00
19797;BME280;10058;57.654;12.044;2024-01-15T12:13:42;98621.16;;;-0.49;100.00
19797;BME280;10058;57.654;12.044;2024-01-15T12:16:07;98622.63;;;-1.02;100.00
19797;BME280;10058;57.654;12.044;2024-01-15T12:18:32;98628.84;;;-0.52;100.00
19797;BME280;10058;57.654;12.044;2024-01-15T12:20:58;98633.84;;;-0.33;100.00
19797;BME280;10058;57.654;12.044;2024-01-15T12:23:24;98639.94;;;-0.32;100.00
19797;BME280;10058;57.654;12.044;2024-01-15T12:25:49;98630.25;;;-0.13;100.00
19797;BME280;10058;57.654;12.044;2024-01-15T12:28:15;98643.81;;;-0.45;100.00
19797;BME280;10058;57.654;12.044;2024-01-15T12:30:40;98650.38;;;-0.55;100.00
19797;BME280;10058;57.654;12.044;2024-01-15T12:33:05;98651.19;;;-0.32;100.00
19797;BME280;10058;57.654;12.044;2024-01-15T12:35:31;98652.63;;;-0.16;100.00
19797;BME280;10058;57.654;12.044;2024-01-15T12:37:56;98657.03;;;-0.61;100.00
19797;BME280;10058;57.654;12.044;2024-01-15T12:40:22;98648.22;;;-0.43;100.00
19797;BME280;10058;57.654;12.044;2024-01-15T12:42:47;98650.78;;;-0.20;100.00
19797;BME280;10058;57.654;12.044;2024-01-15T12:45:13;98657.47;;;-0.49;100.00
19797;BME280;10058;57.654;12.044;2024-01-15T12:47:38;98657.59;;;-0.46;100.00